Vadito, NM

10:21 PM MDT on September 20, 2014 (GMT -0600)
Bell Mountain Ranch | Change Station
CLOSE
Current Station
Personal Weather Station
Location: Vadito, NM
Elevation: 7660 ft
Nearby Weather Stations

Elev 7660 ft 36.19 °N, 105.66 °W | Updated 1 minute ago

Clear
Clear
65.3 °F
Feels Like 65.3 °F
N
9.8
Wind Variable Wind from NE
Gusts 10.7 mph

Today
High -- | Low -- °F
--% Chance of Precip.
Yesterday
High -- | Low -- °F
Precip. -- in
6:49 AM 7:02 PM
Waning Crescent, 9% visible
Pressure 30.34 in
Visibility 10.0 miles
Clouds Clear
Dew Point 45 °F
Humidity 47%
Rainfall 0.00 in
Snow Depth 0 in , 1 in , 3 in
UV 0 out of 12
Pollen 7.50 out of 12
Air Quality Not available.
Flu Activity Not available.
METAR KSKX 210355Z AUTO 15013G18KT 10SM CLR 18/06 A3034 RMK AO1

More Conditions Fewer Conditions

Pressure 30.34 in
Visibility 10.0 miles
Clouds Clear
Dew Point 45 °F
Humidity 47%
Rainfall 0.00 in
Snow Depth 0 in , 1 in , 3 in
UV 0 out of 12
Pollen 7.50 out of 12
Air Quality Not available.
Flu Activity Not available.
METAR KSKX 210355Z AUTO 15013G18KT 10SM CLR 18/06 A3034 RMK AO1

More Conditions Fewer Conditions

10-Day Weather Forecast

Almanac

Astronomy

Sep. 20, 2014 Rise Set
Actual Time 6:49 AM MDT 7:02 PM MDT
Civil Twilight 6:23 AM MDT 7:28 PM MDT
Nautical Twilight 5:53 AM MDT 7:58 PM MDT
Astronomical Twilight 5:22 AM MDT 8:28 PM MDT
Moon 3:35 AM MDT (9/20) 5:03 PM MDT (9/20)
Length of Visible Light 13h 04m
Length of Day
12h 13m
Tomorrow will be 2m 17s shorter.
Waning Crescent, 9% of the Moon is Illuminated
Sep 21
Waning Crescent
Sep 24
New
Oct 1
First Quarter
Oct 8
Full
Oct 15
Last Quarter

Today's Extremes

State Highs State Lows

Community

WunderPhotos

Upload Photos

1,755,081 photos uploaded!

Nearby

Snow Depth

Station Depth Elevation
Tolby 0 in 10180 ft
North Costilla 1 in 10600 ft
Wesner Springs 3 in 11120 ft
Silver Creek Divide 1 in 9000 ft
Signal Peak 0 in 8360 ft

Earthquake Activity

City Distance Mag. Time & Date
No recent earthquake activity has been reported nearby.
Minimum magnitude displayed is 2.5.

Coastal Water Temperatures

Place Temperature
No Stations Reporting

Nearby Weather Stations